createdAt,value
2023-04-29T00:03:48.672Z,1014.38
2023-04-29T00:08:55.818Z,1014.49
2023-04-29T00:14:03.239Z,1014.48
2023-04-29T00:19:10.476Z,1014.64
2023-04-29T00:24:17.751Z,1014.62
2023-04-29T00:29:25.239Z,1014.80
2023-04-29T00:34:32.285Z,1014.75
2023-04-29T00:39:39.583Z,1014.59
2023-04-29T00:44:52.858Z,1014.54
2023-04-29T00:50:00.076Z,1014.55
2023-04-29T00:55:07.410Z,1014.65
2023-04-29T01:00:14.730Z,1014.61
2023-04-29T01:05:21.986Z,1014.53
2023-04-29T01:10:36.061Z,1014.58
2023-04-29T01:16:24.887Z,1014.61
2023-04-29T01:27:35.171Z,1014.57
2023-04-29T01:33:09.467Z,1014.32
2023-04-29T01:39:18.032Z,1014.55
2023-04-29T01:43:56.559Z,1014.98
2023-04-29T01:49:16.788Z,1014.79
2023-04-29T01:54:41.276Z,1014.91
2023-04-29T01:59:47.038Z,1014.67
2023-04-29T02:05:58.484Z,1014.49
2023-04-29T02:10:26.131Z,1014.56
2023-04-29T02:16:17.833Z,1014.76
2023-04-29T02:22:51.625Z,1014.61
2023-04-29T02:26:15.458Z,1014.83
2023-04-29T02:32:02.688Z,1014.79
2023-04-29T02:38:07.046Z,1014.75
2023-04-29T02:43:24.608Z,1014.59
2023-04-29T02:48:46.535Z,1014.54
2023-04-29T02:54:34.890Z,1014.54
2023-04-29T02:59:54.452Z,1014.49
2023-04-29T03:05:37.168Z,1014.36
2023-04-29T03:11:25.435Z,1014.48
2023-04-29T03:16:58.618Z,1014.61
2023-04-29T03:22:18.723Z,1014.45
2023-04-29T03:27:56.408Z,1014.48
2023-04-29T03:33:29.527Z,1014.44
2023-04-29T03:39:13.023Z,1014.36
2023-04-29T03:45:01.345Z,1014.38
2023-04-29T03:50:43.805Z,1014.42
2023-04-29T03:55:57.092Z,1014.39
2023-04-29T04:01:09.481Z,1014.40
2023-04-29T04:11:47.950Z,1014.25
2023-04-29T04:16:52.394Z,1014.30
2023-04-29T04:22:05.272Z,1014.28
2023-04-29T04:27:31.062Z,1014.41
2023-04-29T04:32:40.301Z,1014.57
2023-04-29T04:37:52.587Z,1014.45
2023-04-29T04:43:39.926Z,1014.54
2023-04-29T04:48:54.749Z,1014.77
2023-04-29T04:54:17.796Z,1014.79
2023-04-29T04:59:38.738Z,1014.90
2023-04-29T05:05:11.916Z,1014.87
2023-04-29T05:11:22.938Z,1014.88
2023-04-29T05:16:31.748Z,1014.98
2023-04-29T05:21:44.331Z,1015.03
2023-04-29T05:27:02.629Z,1015.03
2023-04-29T05:32:16.003Z,1015.05
2023-04-29T05:37:38.795Z,1015.17
2023-04-29T05:43:01.430Z,1015.12
2023-04-29T05:48:32.930Z,1015.13
2023-04-29T05:54:03.352Z,1015.19
2023-04-29T05:59:14.737Z,1015.26
2023-04-29T06:04:27.173Z,1015.31
2023-04-29T06:09:39.723Z,1015.39
2023-04-29T06:14:49.943Z,1015.38
2023-04-29T06:20:05.045Z,1015.39
2023-04-29T06:25:14.638Z,1015.51
2023-04-29T06:30:30.148Z,1015.51
2023-04-29T06:35:53.099Z,1015.55
2023-04-29T06:41:31.916Z,1015.46
2023-04-29T06:46:37.830Z,1015.49
2023-04-29T06:52:28.249Z,1015.44
2023-04-29T07:09:18.512Z,1015.44
2023-04-29T07:14:18.501Z,1015.46
2023-04-29T07:14:35.321Z,1015.42
2023-04-29T07:19:19.495Z,1015.35
2023-04-29T07:19:39.226Z,1015.40
2023-04-29T07:24:47.156Z,1015.35
2023-04-29T07:30:09.838Z,1015.31
2023-04-29T07:36:49.273Z,1015.29
2023-04-29T07:40:35.862Z,1015.30
2023-04-29T07:45:59.152Z,1015.29
2023-04-29T07:51:59.615Z,1015.27
2023-04-29T07:56:25.168Z,1015.29
2023-04-29T08:01:35.698Z,1015.27
2023-04-29T08:06:43.425Z,1015.31
2023-04-29T08:12:38.461Z,1015.33
2023-04-29T08:17:09.821Z,1015.33
2023-04-29T08:22:17.443Z,1015.26
2023-04-29T08:27:30.212Z,1015.28
2023-04-29T08:33:14.156Z,1015.20
2023-04-29T08:38:30.048Z,1015.19
2023-04-29T08:44:28.063Z,1015.26
2023-04-29T08:48:55.337Z,1015.20
2023-04-29T08:55:42.593Z,1015.23
2023-04-29T09:00:28.107Z,1015.20
2023-04-29T09:04:53.459Z,1015.16
2023-04-29T09:10:19.894Z,1015.09
2023-04-29T09:15:25.459Z,1015.07
2023-04-29T09:22:22.575Z,1014.99
2023-04-29T09:25:46.874Z,1015.01
2023-04-29T09:30:59.243Z,1014.94
2023-04-29T09:37:56.181Z,1014.93
2023-04-29T09:42:50.943Z,1014.84
2023-04-29T09:48:05.035Z,1014.87
2023-04-29T09:54:02.321Z,1014.84
2023-04-29T09:59:16.712Z,1014.83
2023-04-29T10:11:59.948Z,1014.87
2023-04-29T10:15:11.022Z,1014.82
2023-04-29T10:20:18.825Z,1014.81
2023-04-29T10:26:01.679Z,1014.82
2023-04-29T10:31:10.415Z,1014.80
2023-04-29T10:36:18.011Z,1014.90
2023-04-29T10:41:25.733Z,1014.79
2023-04-29T10:46:42.947Z,1014.85
2023-04-29T10:51:50.436Z,1014.77
2023-04-29T10:56:57.997Z,1014.72
2023-04-29T11:02:05.526Z,1014.65
2023-04-29T11:07:27.862Z,1014.50
2023-04-29T11:13:22.285Z,1014.49
2023-04-29T11:17:57.862Z,1014.42
2023-04-29T11:23:54.291Z,1014.41
2023-04-29T11:28:27.466Z,1014.42
2023-04-29T11:33:34.790Z,1014.41
2023-04-29T11:38:41.897Z,1014.44
2023-04-29T11:43:49.072Z,1014.35
2023-04-29T11:48:56.265Z,1014.31
2023-04-29T11:54:04.301Z,1014.33
2023-04-29T11:59:11.133Z,1014.26
2023-04-29T12:04:18.908Z,1014.22
2023-04-29T12:09:25.515Z,1014.16
2023-04-29T12:14:32.775Z,1014.21
2023-04-29T12:19:40.013Z,1014.17
2023-04-29T12:24:47.265Z,1014.14
2023-04-29T12:29:54.454Z,1014.09
2023-04-29T12:35:01.702Z,1013.99
2023-04-29T12:40:09.036Z,1014.03
2023-04-29T12:45:16.243Z,1014.01
2023-04-29T12:50:23.531Z,1013.98
2023-04-29T12:55:30.864Z,1013.98
2023-04-29T13:00:38.190Z,1013.91
2023-04-29T13:05:45.287Z,1013.95
2023-04-29T13:10:52.627Z,1013.94
2023-04-29T13:15:59.848Z,1013.90
2023-04-29T13:21:07.016Z,1013.87
2023-04-29T13:26:14.194Z,1013.79
2023-04-29T13:31:21.484Z,1013.78
2023-04-29T13:36:28.867Z,1013.74
2023-04-29T13:41:36.137Z,1013.77
2023-04-29T13:46:47.619Z,1013.72
2023-04-29T13:52:42.909Z,1013.68
2023-04-29T13:57:30.207Z,1013.61
2023-04-29T14:02:24.360Z,1013.71
2023-04-29T14:07:15.430Z,1013.70
2023-04-29T14:12:22.905Z,1013.79
2023-04-29T14:17:30.220Z,1013.80
2023-04-29T14:22:37.490Z,1013.85
2023-04-29T14:27:44.741Z,1013.87
2023-04-29T14:32:51.947Z,1013.88
2023-04-29T14:37:59.260Z,1013.93
2023-04-29T14:43:06.510Z,1014.08
2023-04-29T14:48:13.851Z,1014.13
2023-04-29T14:53:21.221Z,1014.19
2023-04-29T14:58:31.468Z,1014.24
2023-04-29T15:08:46.039Z,1014.39
2023-04-29T15:13:53.235Z,1014.43
2023-04-29T15:19:00.524Z,1014.52
2023-04-29T15:24:07.825Z,1014.52
2023-04-29T15:29:15.045Z,1014.56
2023-04-29T15:34:22.266Z,1014.66
2023-04-29T15:39:29.569Z,1014.69
2023-04-29T15:44:36.823Z,1014.70
2023-04-29T15:49:44.281Z,1014.78
2023-04-29T15:54:51.636Z,1014.78
2023-04-29T15:59:58.826Z,1014.76
2023-04-29T16:05:06.068Z,1014.71
2023-04-29T16:10:13.384Z,1014.66
2023-04-29T16:15:20.646Z,1014.75
2023-04-29T16:20:27.926Z,1014.76
2023-04-29T16:25:35.274Z,1014.78
2023-04-29T16:30:42.409Z,1014.84
2023-04-29T16:35:49.711Z,1014.81
2023-04-29T16:40:56.984Z,1014.84
2023-04-29T16:46:04.552Z,1014.84
2023-04-29T16:51:11.824Z,1014.89
2023-04-29T16:56:19.060Z,1014.91
2023-04-29T17:01:26.313Z,1014.93
2023-04-29T17:06:33.736Z,1014.93
2023-04-29T17:11:40.891Z,1014.98
2023-04-29T17:16:48.093Z,1014.96
2023-04-29T17:21:55.451Z,1014.96
2023-04-29T17:27:02.947Z,1014.94
2023-04-29T17:32:10.509Z,1014.99
2023-04-29T17:37:17.838Z,1015.01
2023-04-29T17:42:25.232Z,1015.00
2023-04-29T17:47:32.549Z,1015.06
2023-04-29T17:52:39.802Z,1015.16
2023-04-29T17:57:47.124Z,1015.26
2023-04-29T18:02:54.900Z,1015.30
2023-04-29T18:08:02.164Z,1015.36
2023-04-29T18:13:09.729Z,1015.39
2023-04-29T18:18:17.541Z,1015.46
2023-04-29T18:23:25.155Z,1015.54
2023-04-29T18:28:32.613Z,1015.66
2023-04-29T18:33:39.847Z,1015.70
2023-04-29T18:38:48.120Z,1015.83
2023-04-29T18:43:55.346Z,1015.99
2023-04-29T18:49:02.538Z,1016.01
2023-04-29T18:54:09.767Z,1016.14
2023-04-29T18:59:17.331Z,1016.15
2023-04-29T19:04:24.741Z,1016.18
2023-04-29T19:09:31.937Z,1016.23
2023-04-29T19:14:39.456Z,1016.32
2023-04-29T19:19:47.060Z,1016.37
2023-04-29T19:24:54.560Z,1016.41
2023-04-29T19:30:02.156Z,1016.45
2023-04-29T19:35:09.416Z,1016.51
2023-04-29T19:40:16.916Z,1016.46
2023-04-29T19:45:24.631Z,1016.51
2023-04-29T19:50:32.229Z,1016.54
2023-04-29T19:55:39.770Z,1016.57
2023-04-29T20:00:47.336Z,1016.65
2023-04-29T20:05:54.703Z,1016.67
2023-04-29T20:11:01.981Z,1016.75
2023-04-29T20:16:09.436Z,1016.78
2023-04-29T20:21:16.858Z,1016.80
2023-04-29T20:26:24.341Z,1016.80
2023-04-29T20:31:31.566Z,1016.83
2023-04-29T20:36:38.714Z,1016.86
2023-04-29T20:41:45.945Z,1016.87
2023-04-29T20:46:53.465Z,1016.90
2023-04-29T20:52:00.374Z,1016.89
2023-04-29T20:57:07.537Z,1016.95
2023-04-29T21:02:16.967Z,1016.89
2023-04-29T21:07:22.654Z,1016.89
2023-04-29T21:12:29.957Z,1016.88
2023-04-29T21:17:37.221Z,1016.87
2023-04-29T21:22:44.389Z,1016.86
2023-04-29T21:27:51.634Z,1016.81
2023-04-29T21:32:58.938Z,1016.86
2023-04-29T21:38:06.154Z,1016.83
2023-04-29T21:43:14.420Z,1016.85
2023-04-29T21:48:21.652Z,1016.87
2023-04-29T21:53:29.129Z,1016.84
2023-04-29T21:58:36.404Z,1016.86
2023-04-29T22:03:43.601Z,1016.89
2023-04-29T22:08:50.857Z,1016.87
2023-04-29T22:13:58.059Z,1016.92
2023-04-29T22:19:05.299Z,1016.87
2023-04-29T22:24:12.500Z,1016.90
2023-04-29T22:29:19.796Z,1016.90
2023-04-29T22:34:27.131Z,1016.84
2023-04-29T22:39:34.384Z,1016.82
2023-04-29T22:44:41.762Z,1016.88
2023-04-29T22:49:48.965Z,1016.89
2023-04-29T22:54:56.225Z,1016.91
2023-04-29T23:00:03.422Z,1016.93
2023-04-29T23:05:10.798Z,1016.97
2023-04-29T23:10:17.911Z,1017.06
2023-04-29T23:15:25.296Z,1017.03
2023-04-29T23:20:32.593Z,1017.06
2023-04-29T23:25:39.870Z,1017.05
2023-04-29T23:30:47.146Z,1017.05
2023-04-29T23:35:54.486Z,1017.12
2023-04-29T23:41:01.725Z,1017.16
2023-04-29T23:46:09.054Z,1017.12
2023-04-29T23:51:16.446Z,1017.15
2023-04-29T23:56:23.675Z,1017.11
